Time;durP1;ratioP1;P1;durP2;ratioP2;P2;SDS_P1;SDS_P2;PMS_P1;PMS_P2;Temp;Humidity;BMP_temperature;BMP_pressure;BME280_temperature;BME280_humidity;BME280_pressure;Samples;Min_cycle;Max_cycle;Signal;HPM_P1;HPM_P2
2022/01/16 00:00:27;;;;;;;24.40;9.60;;;;;;;0.54;71.18;97608.81;5093849;28;20788;-30
2022/01/16 00:05:41;;;;;;;20.33;9.50;;;;;;;0.56;71.28;97612.06;5093777;28;20414;-32
2022/01/16 00:08:08;;;;;;;42.67;16.60;;;;;;;0.52;71.43;97613.38;5094009;28;20447;-32
2022/01/16 00:10:35;;;;;;;32.23;16.10;;;;;;;0.47;72.24;97611.19;5093717;28;20450;-31
2022/01/16 00:13:03;;;;;;;28.30;12.13;;;;;;;0.49;73.21;97611.06;5093231;28;20486;-31
2022/01/16 00:15:30;;;;;;;31.13;11.73;;;;;;;0.46;73.55;97611.38;5094372;28;20443;-31
2022/01/16 00:18:08;;;;;;;20.70;12.47;;;;;;;0.44;73.81;97623.75;5093642;28;21024;-31
2022/01/16 00:20:36;;;;;;;30.43;12.60;;;;;;;0.36;73.94;97633.16;5093710;28;20462;-31
2022/01/16 00:23:09;;;;;;;25.33;10.93;;;;;;;0.34;74.23;97650.78;5093564;28;20945;-31
2022/01/16 00:25:39;;;;;;;21.50;11.80;;;;;;;0.33;74.39;97649.16;5093617;28;20428;-34
2022/01/16 00:28:06;;;;;;;27.03;11.13;;;;;;;0.32;74.06;97651.91;5093263;28;20446;-33
2022/01/16 00:30:33;;;;;;;24.40;11.13;;;;;;;0.30;74.92;97670.34;5093487;28;20443;-33
2022/01/16 00:33:01;;;;;;;19.90;8.37;;;;;;;0.25;75.11;97687.44;5093531;28;20487;-31
2022/01/16 00:35:28;;;;;;;20.70;9.73;;;;;;;0.20;75.27;97706.19;5093087;28;20482;-31
2022/01/16 00:37:55;;;;;;;18.83;9.60;;;;;;;0.19;75.28;97768.03;5093465;28;20804;-31
2022/01/16 00:40:24;;;;;;;13.13;8.07;;;;;;;0.04;75.22;97698.97;5093049;28;20451;-31
2022/01/16 00:42:54;;;;;;;16.97;9.80;;;;;;;0.08;75.24;97644.69;5093423;28;20504;-31
2022/01/16 00:45:21;;;;;;;17.87;10.13;;;;;;;-0.06;75.26;97643.41;5093025;28;20443;-31
2022/01/16 00:47:48;;;;;;;26.50;10.77;;;;;;;0.05;74.47;97634.53;5093474;28;20450;-31
2022/01/16 00:50:15;;;;;;;22.20;9.30;;;;;;;0.03;74.46;97547.72;5093057;28;20489;-31
2022/01/16 00:52:43;;;;;;;13.17;5.80;;;;;;;-0.06;74.02;97490.19;5092856;28;20482;-31
2022/01/16 00:55:11;;;;;;;11.90;6.67;;;;;;;-0.04;74.45;97519.59;5093021;28;20450;-31
2022/01/16 00:57:40;;;;;;;15.53;6.20;;;;;;;-0.07;74.23;97485.13;5092833;28;20475;-31
2022/01/16 01:00:08;;;;;;;13.10;7.03;;;;;;;-0.10;73.64;97511.53;5093301;28;20443;-31
2022/01/16 01:02:35;;;;;;;9.07;6.80;;;;;;;-0.11;73.37;97504.66;5092838;28;20930;-31
2022/01/16 01:05:03;;;;;;;18.97;7.73;;;;;;;-0.13;73.82;97488.34;5093200;28;20438;-31
2022/01/16 01:07:31;;;;;;;21.30;10.87;;;;;;;-0.18;73.90;97567.09;5092814;28;20443;-31
2022/01/16 01:09:58;;;;;;;18.40;8.93;;;;;;;-0.19;74.29;97580.28;5092828;28;20446;-31
2022/01/16 01:12:29;;;;;;;13.83;7.10;;;;;;;-0.16;72.63;97596.47;5093101;28;20486;-31
2022/01/16 01:15:07;;;;;;;37.13;15.37;;;;;;;-0.24;72.70;97559.84;5093630;28;20514;-31
2022/01/16 01:17:43;;;;;;;36.87;12.43;;;;;;;-0.06;72.53;97554.66;5092774;28;20919;-30
2022/01/16 01:20:12;;;;;;;22.47;7.90;;;;;;;-0.04;72.11;97600.53;5096025;28;20795;-31
2022/01/16 01:22:39;;;;;;;16.10;7.83;;;;;;;-0.02;72.24;97577.69;5096265;28;20890;-31
2022/01/16 01:25:08;;;;;;;16.50;8.87;;;;;;;-0.02;72.31;97598.59;5096260;28;20453;-31
2022/01/16 01:27:35;;;;;;;21.43;9.90;;;;;;;-0.06;72.23;97571.13;5096539;28;20449;-31
2022/01/16 01:30:06;;;;;;;17.50;6.77;;;;;;;-0.02;71.97;97642.97;5096547;28;20842;-31
2022/01/16 01:32:36;;;;;;;11.37;5.67;;;;;;;-0.06;72.75;97585.97;5096406;28;20478;-31
2022/01/16 01:35:03;;;;;;;16.13;8.07;;;;;;;-0.04;72.15;97584.03;5096081;28;20450;-30
2022/01/16 01:37:31;;;;;;;29.53;13.23;;;;;;;-0.02;71.86;97574.28;5095922;28;20931;-30
2022/01/16 01:39:58;;;;;;;23.73;9.07;;;;;;;-0.06;71.90;97586.78;5095998;28;20450;-30
2022/01/16 01:42:31;;;;;;;13.50;7.77;;;;;;;-0.08;72.39;97603.59;5095910;28;20443;-31
2022/01/16 01:53:15;;;;;;;19.60;7.50;;;;;;;-0.31;72.72;97597.97;5095804;28;20961;-31
2022/01/16 01:55:44;;;;;;;20.13;8.13;;;;;;;-0.31;72.50;97634.50;5095997;28;20933;-31
2022/01/16 01:58:14;;;;;;;9.43;5.13;;;;;;;-0.33;72.66;97628.63;5095504;28;20553;-31
2022/01/16 02:00:41;;;;;;;13.83;6.00;;;;;;;-0.31;71.76;97616.25;5095630;28;20427;-30
2022/01/16 02:03:16;;;;;;;10.80;6.53;;;;;;;-0.26;71.50;97621.81;5095818;28;20915;-31
2022/01/16 02:05:43;;;;;;;10.60;5.27;;;;;;;-0.20;71.18;97621.25;5095491;28;20476;-32
2022/01/16 02:08:11;;;;;;;6.90;5.20;;;;;;;-0.15;70.22;97612.97;5095815;28;20771;-31
2022/01/16 02:10:40;;;;;;;12.13;4.20;;;;;;;-0.06;70.42;97632.97;5095495;28;20443;-30
2022/01/16 02:13:11;;;;;;;21.57;5.53;;;;;;;-0.05;70.31;97621.53;5095202;28;21077;-31
2022/01/16 02:28:01;;;;;;;8.53;4.80;;;;;;;-0.08;70.25;97614.84;5095721;28;20439;-30
2022/01/16 02:35:17;;;;;;;11.83;6.23;;;;;;;-0.17;69.31;97566.16;5033109;28;20408;-31
2022/01/16 02:37:44;;;;;;;12.43;6.27;;;;;;;-0.02;69.37;97582.91;5032922;28;20479;-31
2022/01/16 02:40:20;;;;;;;9.30;4.70;;;;;;;-0.02;69.63;97598.59;5032707;28;20442;-33
2022/01/16 02:42:51;;;;;;;8.50;4.80;;;;;;;-0.01;69.63;97592.38;5032616;28;20446;-31
2022/01/16 02:45:29;;;;;;;7.53;4.20;;;;;;;0.00;69.77;97590.59;5032594;28;20441;-33
2022/01/16 02:47:58;;;;;;;7.70;6.90;;;;;;;-0.03;70.04;97590.88;5032539;28;20492;-33
2022/01/16 02:50:26;;;;;;;10.07;5.70;;;;;;;-0.10;69.86;97588.06;5032578;28;20484;-33
2022/01/16 02:52:54;;;;;;;9.73;6.57;;;;;;;-0.12;70.00;97603.06;5032317;28;20484;-31
2022/01/16 02:55:23;;;;;;;12.87;7.13;;;;;;;-0.39;70.16;97574.41;5032381;28;20446;-33
2022/01/16 02:57:52;;;;;;;8.60;6.13;;;;;;;-0.22;70.31;97602.28;5032094;28;20481;-33
2022/01/16 03:00:21;;;;;;;16.40;6.93;;;;;;;-0.23;70.40;97600.66;5032281;28;20449;-33
2022/01/16 03:02:49;;;;;;;10.07;5.30;;;;;;;-0.25;70.13;97586.94;5032317;28;20792;-32
2022/01/16 03:05:17;;;;;;;17.13;5.80;;;;;;;-0.20;69.71;97597.75;5032202;28;20452;-33
2022/01/16 03:07:45;;;;;;;14.27;6.90;;;;;;;-0.27;70.25;97594.91;5032010;28;20456;-33
2022/01/16 03:10:46;;;;;;;14.43;5.90;;;;;;;-0.21;70.50;97611.78;5090686;28;20812;-32
2022/01/16 03:13:15;;;;;;;6.60;3.97;;;;;;;-0.22;70.24;97617.94;5094168;28;21051;-31
2022/01/16 03:15:44;;;;;;;16.27;5.13;;;;;;;-0.22;70.60;97607.50;5094201;28;20934;-33
2022/01/16 03:23:43;;;;;;;8.67;5.17;;;;;;;-0.33;73.84;97610.34;5094474;28;20771;-31
2022/01/16 03:26:10;;;;;;;6.87;4.53;;;;;;;-0.37;74.21;97601.97;5093938;28;20445;-32
2022/01/16 03:28:39;;;;;;;10.93;4.37;;;;;;;-0.41;74.26;97613.69;5093930;28;20959;-32
2022/01/16 03:31:06;;;;;;;13.53;5.23;;;;;;;-0.46;74.85;97631.56;5094191;28;20447;-33
2022/01/16 03:33:33;;;;;;;6.93;6.03;;;;;;;-0.47;75.44;97616.91;5093814;28;20482;-31
2022/01/16 03:36:01;;;;;;;14.00;7.40;;;;;;;-0.50;74.90;97620.59;5093869;28;20453;-33
2022/01/16 03:38:28;;;;;;;10.80;7.17;;;;;;;-0.50;74.97;97625.81;5093704;28;20439;-33
2022/01/16 03:40:55;;;;;;;18.47;7.07;;;;;;;-0.49;75.57;97624.06;5093128;28;20931;-32
2022/01/16 03:43:22;;;;;;;15.07;6.20;;;;;;;-0.65;75.25;97591.56;5093678;28;20447;-33
2022/01/16 03:45:51;;;;;;;17.97;7.93;;;;;;;-0.49;75.67;97617.03;5094653;28;20469;-31
2022/01/16 03:48:18;;;;;;;16.80;7.37;;;;;;;-0.49;75.33;97613.63;5093689;28;20443;-33
2022/01/16 03:50:45;;;;;;;11.37;5.50;;;;;;;-0.51;75.77;97618.16;5093890;28;20820;-31
2022/01/16 03:53:13;;;;;;;14.97;7.97;;;;;;;-0.64;75.72;97601.06;5093893;28;20483;-33
2022/01/16 03:55:40;;;;;;;15.23;7.27;;;;;;;-0.56;76.12;97629.03;5093498;28;20935;-34
2022/01/16 03:58:07;;;;;;;9.10;6.13;;;;;;;-0.61;76.07;97626.00;5093350;28;20466;-33
2022/01/16 04:00:38;;;;;;;10.73;7.10;;;;;;;-0.61;75.91;97628.63;5093909;28;20442;-33
2022/01/16 04:03:07;;;;;;;19.77;9.97;;;;;;;-0.64;75.32;97634.97;5093901;28;20810;-31
2022/01/16 04:05:34;;;;;;;24.90;11.33;;;;;;;-0.74;75.64;97615.09;5093776;28;20450;-31
2022/01/16 04:08:02;;;;;;;23.50;12.07;;;;;;;-0.66;75.65;97630.88;5093455;28;20439;-31
2022/01/16 04:10:30;;;;;;;21.53;13.67;;;;;;;-0.68;75.59;97627.56;5093782;28;20443;-31
2022/01/16 04:12:57;;;;;;;21.20;9.20;;;;;;;-0.73;75.67;97625.41;5093238;28;20446;-31
2022/01/16 04:15:34;;;;;;;23.00;9.43;;;;;;;-0.75;75.47;97623.88;5093419;28;20965;-31
2022/01/16 04:18:05;;;;;;;16.90;7.80;;;;;;;-0.82;74.79;97649.72;5093315;28;20431;-31
2022/01/16 04:20:35;;;;;;;17.83;7.37;;;;;;;-0.85;75.13;97639.59;5093666;28;20756;-31
2022/01/16 04:23:03;;;;;;;12.23;6.70;;;;;;;-0.86;74.96;97641.38;5093497;28;20443;-31
2022/01/16 04:25:30;;;;;;;17.87;7.80;;;;;;;-0.86;74.26;97636.16;5093245;28;20443;-31
2022/01/16 04:27:58;;;;;;;19.47;6.43;;;;;;;-0.88;73.90;97635.50;5093155;28;20444;-31
2022/01/16 04:30:25;;;;;;;18.07;7.33;;;;;;;-0.91;73.30;97638.38;5093187;28;20445;-31
2022/01/16 04:32:53;;;;;;;25.13;9.60;;;;;;;-0.88;73.32;97645.91;5093530;28;20447;-31
2022/01/16 04:35:20;;;;;;;31.30;8.43;;;;;;;-0.87;72.72;97639.72;5093095;28;20498;-31
2022/01/16 04:37:49;;;;;;;20.17;7.90;;;;;;;-0.86;71.86;97640.53;5093191;28;20983;-31
2022/01/16 04:40:19;;;;;;;12.63;6.37;;;;;;;-0.83;72.14;97646.28;5093066;28;20447;-31
2022/01/16 04:45:31;;;;;;;19.20;8.40;;;;;;;-0.79;71.76;97640.81;5093212;28;20426;-30
2022/01/16 04:47:58;;;;;;;25.50;11.73;;;;;;;-0.79;71.86;97635.59;5093296;28;20446;-31
2022/01/16 04:50:27;;;;;;;31.83;10.30;;;;;;;-0.78;71.63;97632.81;5092961;28;20445;-31
2022/01/16 04:52:55;;;;;;;16.17;7.53;;;;;;;-0.78;72.37;97627.59;5094508;28;20443;-31
2022/01/16 04:55:25;;;;;;;24.00;11.00;;;;;;;-0.76;72.56;97650.94;5096800;28;20490;-31
2022/01/16 04:57:52;;;;;;;34.60;12.83;;;;;;;-0.81;72.89;97621.88;5096778;28;20528;-30
2022/01/16 05:00:20;;;;;;;36.80;17.17;;;;;;;-0.81;73.02;97617.47;5096843;28;20439;-33
2022/01/16 05:02:47;;;;;;;31.33;16.07;;;;;;;-0.98;72.44;97592.97;5097008;28;20446;-32
2022/01/16 05:05:14;;;;;;;28.33;12.70;;;;;;;-0.83;72.69;97616.78;5096779;28;20915;-31
2022/01/16 05:07:42;;;;;;;28.33;14.27;;;;;;;-0.85;73.61;97616.94;5096530;28;20446;-31
2022/01/16 05:10:13;;;;;;;25.47;14.37;;;;;;;-0.95;73.64;97600.50;5096649;28;20492;-32
2022/01/16 05:12:43;;;;;;;53.10;22.20;;;;;;;-0.89;73.77;97620.78;5096875;28;20438;-33
2022/01/16 05:17:56;;;;;;;38.13;18.90;;;;;;;-0.99;74.80;97617.44;5096544;28;20419;-32
2022/01/16 05:20:23;;;;;;;31.03;17.20;;;;;;;-1.05;75.33;97618.00;5096373;28;20946;-32
2022/01/16 05:22:51;;;;;;;43.17;16.43;;;;;;;-1.19;75.82;97605.41;5096380;28;20443;-32
2022/01/16 05:25:20;;;;;;;49.20;20.20;;;;;;;-1.20;76.26;97619.41;5097413;28;20447;-34
2022/01/16 05:27:47;;;;;;;46.33;23.37;;;;;;;-1.24;76.48;97622.28;5096270;28;20450;-32
2022/01/16 05:30:14;;;;;;;26.93;14.47;;;;;;;-1.31;76.03;97616.00;5096201;28;20442;-31
2022/01/16 05:32:42;;;;;;;28.33;17.03;;;;;;;-1.24;75.86;97616.25;5096479;28;20927;-33
2022/01/16 05:35:10;;;;;;;24.30;12.13;;;;;;;-1.33;75.41;97611.91;5096190;28;20491;-32
2022/01/16 05:37:41;;;;;;;69.33;35.90;;;;;;;-1.27;76.09;97619.97;5096142;28;20443;-32
2022/01/16 05:40:08;;;;;;;70.13;35.37;;;;;;;-1.32;76.51;97624.78;5096012;28;20806;-31
2022/01/16 05:42:37;;;;;;;67.23;34.13;;;;;;;-1.32;77.00;97622.16;5096335;28;20439;-32
2022/01/16 05:45:05;;;;;;;32.73;19.97;;;;;;;-1.32;76.25;97635.19;5097102;28;20439;-32
2022/01/16 05:47:32;;;;;;;37.73;19.80;;;;;;;-1.32;76.71;97634.38;5095854;28;20948;-32
2022/01/16 05:49:59;;;;;;;32.00;17.73;;;;;;;-1.34;76.78;97631.91;5096200;28;20450;-31
2022/01/16 05:52:26;;;;;;;32.63;16.60;;;;;;;-1.35;76.69;97635.50;5096622;28;20934;-33
2022/01/16 05:54:53;;;;;;;30.00;15.73;;;;;;;-1.35;76.65;97645.91;5095738;28;20482;-32
2022/01/16 05:57:21;;;;;;;47.53;17.20;;;;;;;-1.37;77.29;97645.22;5095461;28;20482;-32
2022/01/16 05:59:49;;;;;;;38.57;17.20;;;;;;;-1.36;77.67;97649.47;5095565;28;20449;-32
2022/01/16 06:02:17;;;;;;;18.20;9.80;;;;;;;-1.32;77.66;97650.84;5095938;28;20446;-33
2022/01/16 06:04:44;;;;;;;19.93;10.43;;;;;;;-1.16;77.47;97652.03;5094820;28;20453;-32
2022/01/16 06:07:11;;;;;;;39.93;16.67;;;;;;;-0.84;77.39;97654.25;5095509;28;20445;-32
2022/01/16 06:09:38;;;;;;;27.03;14.20;;;;;;;-0.54;77.11;97666.19;5095794;28;20447;-31
2022/01/16 06:12:07;;;;;;;27.53;14.27;;;;;;;-0.25;76.04;97671.28;5095706;28;20451;-33
2022/01/16 06:14:34;;;;;;;23.70;11.07;;;;;;;-0.01;73.78;97656.84;5095362;28;20487;-32
2022/01/16 06:17:03;;;;;;;73.00;20.97;;;;;;;0.08;72.74;97634.22;5095087;28;20450;-33
2022/01/16 06:19:30;;;;;;;58.57;24.00;;;;;;;0.60;72.06;97665.69;5095549;28;20447;-32
2022/01/16 06:21:57;;;;;;;57.70;23.43;;;;;;;0.88;70.84;97681.25;5095425;28;20447;-31
2022/01/16 06:24:24;;;;;;;91.93;38.40;;;;;;;1.19;70.01;97671.97;5095131;28;20435;-32
2022/01/16 06:26:51;;;;;;;69.47;32.03;;;;;;;1.49;69.53;97672.44;5095022;28;20439;-33
2022/01/16 06:29:19;;;;;;;59.93;29.73;;;;;;;1.80;68.76;97677.13;5094941;28;20449;-33
2022/01/16 06:31:47;;;;;;;62.67;33.10;;;;;;;2.10;68.33;97680.13;5094975;28;20447;-32
2022/01/16 06:34:15;;;;;;;100.23;44.80;;;;;;;2.36;67.37;97691.31;5094749;28;20843;-32
2022/01/16 06:36:43;;;;;;;110.47;48.90;;;;;;;2.61;66.29;97686.09;5095169;28;20466;-32
2022/01/16 06:39:12;;;;;;;145.77;62.87;;;;;;;2.65;65.26;97671.69;5094701;28;20447;-32
2022/01/16 06:41:40;;;;;;;122.10;52.07;;;;;;;3.03;64.61;97698.19;5094778;28;20458;-31
2022/01/16 06:44:07;;;;;;;95.27;43.77;;;;;;;3.22;64.08;97703.06;5094766;28;20439;-30
2022/01/16 06:46:34;;;;;;;123.77;49.37;;;;;;;3.39;63.70;97703.03;5094692;28;20435;-31
2022/01/16 06:49:02;;;;;;;78.80;40.20;;;;;;;3.41;62.79;97691.38;5094640;28;20798;-31
2022/01/16 06:51:30;;;;;;;60.20;33.40;;;;;;;3.64;61.97;97712.47;5094542;28;20449;-31
2022/01/16 06:53:57;;;;;;;58.27;27.30;;;;;;;3.77;61.89;97711.13;5094426;28;20443;-31
2022/01/16 06:56:25;;;;;;;36.77;19.93;;;;;;;3.94;61.20;97711.88;5094836;28;20493;-31
2022/01/16 06:58:53;;;;;;;56.20;25.03;;;;;;;4.08;61.09;97698.81;5095264;28;20445;-31
2022/01/16 07:01:20;;;;;;;82.10;38.47;;;;;;;4.04;60.35;97705.44;5094725;28;20454;-31
2022/01/16 07:03:48;;;;;;;91.50;34.63;;;;;;;4.06;60.36;97713.91;5094652;28;20800;-31
2022/01/16 07:06:16;;;;;;;51.90;28.33;;;;;;;4.04;59.21;97708.06;5094305;28;20450;-30
2022/01/16 07:08:45;;;;;;;47.20;22.57;;;;;;;4.16;60.10;97712.91;5094159;28;20447;-31
2022/01/16 07:11:12;;;;;;;53.63;24.97;;;;;;;4.16;59.83;97720.78;5094496;28;20450;-31
2022/01/16 07:13:39;;;;;;;32.97;18.00;;;;;;;4.26;60.03;97732.72;5094164;28;20938;-31
2022/01/16 07:16:07;;;;;;;28.70;11.90;;;;;;;4.29;59.83;97718.41;5093344;28;20498;-31
2022/01/16 07:18:34;;;;;;;27.07;13.97;;;;;;;4.33;59.69;97724.97;5094378;28;20469;-31
2022/01/16 07:21:02;;;;;;;21.77;11.03;;;;;;;4.42;59.93;97731.81;5094002;28;20442;-31
2022/01/16 07:23:29;;;;;;;11.50;6.40;;;;;;;4.46;59.81;97725.19;5094046;28;20439;-31
2022/01/16 07:25:58;;;;;;;13.23;7.27;;;;;;;4.42;60.14;97709.97;5093851;28;20439;-32
2022/01/16 07:28:25;;;;;;;14.50;8.77;;;;;;;4.60;59.82;97722.81;5093954;28;20442;-30
2022/01/16 07:30:52;;;;;;;12.50;7.07;;;;;;;4.76;59.64;97727.97;5094131;28;20453;-33
2022/01/16 07:33:19;;;;;;;26.43;12.60;;;;;;;4.92;59.52;97721.72;5093790;28;20476;-33
2022/01/16 07:35:46;;;;;;;11.70;8.77;;;;;;;5.04;59.47;97715.06;5094227;28;20490;-33
2022/01/16 07:38:13;;;;;;;19.43;9.90;;;;;;;5.12;59.22;97722.06;5094138;28;20442;-31
2022/01/16 07:40:41;;;;;;;35.67;17.77;;;;;;;5.16;58.73;97723.31;5093965;28;20438;-33
2022/01/16 07:43:09;;;;;;;75.70;34.20;;;;;;;5.25;59.02;97727.53;5094005;28;20450;-32
2022/01/16 07:45:38;;;;;;;33.93;19.80;;;;;;;5.36;58.65;97722.84;5093662;28;20443;-32
2022/01/16 07:48:06;;;;;;;111.07;47.77;;;;;;;5.49;59.21;97733.56;5093913;28;20962;-32
2022/01/16 07:50:35;;;;;;;52.80;26.53;;;;;;;5.56;58.13;97734.47;5093891;28;20530;-30
2022/01/16 07:53:02;;;;;;;27.30;12.57;;;;;;;5.63;58.11;97739.81;5093601;28;20443;-31
2022/01/16 07:55:29;;;;;;;10.47;6.67;;;;;;;5.69;58.03;97729.38;5093420;28;20493;-32
2022/01/16 07:57:58;;;;;;;24.80;12.57;;;;;;;5.67;57.75;97723.47;5093433;28;20482;-31
2022/01/16 08:00:28;;;;;;;20.30;10.60;;;;;;;5.82;57.80;97727.91;5093419;28;20922;-31
2022/01/16 08:02:57;;;;;;;24.47;11.83;;;;;;;5.91;57.50;97739.97;5093668;28;20450;-31
2022/01/16 08:05:25;;;;;;;25.03;11.07;;;;;;;5.91;57.08;97740.78;5093751;28;20518;-31
2022/01/16 08:07:52;;;;;;;14.50;7.93;;;;;;;5.95;56.49;97733.38;5093381;28;20443;-31
2022/01/16 08:10:20;;;;;;;29.77;11.13;;;;;;;5.97;56.96;97731.38;5093675;28;20439;-31
2022/01/16 08:12:47;;;;;;;33.47;15.30;;;;;;;6.05;56.54;97733.09;5093642;28;20438;-31
2022/01/16 08:15:14;;;;;;;46.43;17.53;;;;;;;6.19;56.90;97731.44;5093513;28;20490;-32
2022/01/16 08:17:43;;;;;;;63.20;23.27;;;;;;;6.31;56.21;97722.03;5093385;28;20958;-31
2022/01/16 08:20:11;;;;;;;49.23;25.00;;;;;;;6.43;55.87;97712.66;5093454;28;20439;-30
2022/01/16 08:22:39;;;;;;;33.47;14.30;;;;;;;6.56;55.15;97704.06;5093278;28;20438;-31
2022/01/16 08:25:08;;;;;;;14.27;9.00;;;;;;;6.59;54.86;97708.94;5093109;28;20443;-30
2022/01/16 08:27:35;;;;;;;14.87;10.30;;;;;;;6.64;54.26;97709.19;5094574;28;20442;-31
2022/01/16 08:30:04;;;;;;;17.93;10.97;;;;;;;6.57;53.96;97700.38;5097573;28;20438;-30
2022/01/16 08:32:31;;;;;;;31.37;13.57;;;;;;;6.60;54.54;97709.75;5097332;28;20446;-31
2022/01/16 08:35:00;;;;;;;11.70;7.20;;;;;;;6.71;54.06;97703.97;5096510;28;20482;-31
2022/01/16 08:37:27;;;;;;;19.10;10.07;;;;;;;6.83;54.08;97694.53;5097140;28;20438;-30
2022/01/16 08:39:54;;;;;;;33.67;15.47;;;;;;;6.89;53.46;97699.06;5097102;28;20521;-31
2022/01/16 08:42:22;;;;;;;38.50;17.70;;;;;;;6.95;53.21;97698.28;5097006;28;20806;-31
2022/01/16 08:44:49;;;;;;;36.63;14.53;;;;;;;6.90;53.00;97690.13;5097386;28;20534;-30
2022/01/16 08:47:17;;;;;;;62.87;23.83;;;;;;;6.86;53.26;97688.88;5097259;28;20442;-31
2022/01/16 08:49:44;;;;;;;72.43;25.03;;;;;;;6.74;52.99;97683.28;5097319;28;20450;-31
2022/01/16 08:52:13;;;;;;;50.83;17.97;;;;;;;6.75;53.40;97679.66;5096837;28;20442;-31
2022/01/16 08:54:40;;;;;;;83.30;28.07;;;;;;;6.84;53.52;97685.63;5097551;28;20450;-31
2022/01/16 08:57:08;;;;;;;49.53;23.83;;;;;;;6.88;53.49;97692.16;5096504;28;20562;-30
2022/01/16 08:59:35;;;;;;;63.60;24.47;;;;;;;6.83;53.51;97694.53;5097101;28;20465;-30
2022/01/16 09:02:02;;;;;;;87.47;31.30;;;;;;;6.75;52.45;97689.38;5096828;28;20443;-31
2022/01/16 09:04:29;;;;;;;55.67;22.40;;;;;;;6.81;53.27;97695.72;5096931;28;20442;-31
2022/01/16 09:06:57;;;;;;;24.67;12.27;;;;;;;6.97;53.16;97698.13;5096947;28;20446;-30
2022/01/16 09:09:30;;;;;;;17.00;8.80;;;;;;;7.05;52.45;97682.09;5096635;28;20439;-31
2022/01/16 09:11:58;;;;;;;23.10;7.70;;;;;;;7.19;52.01;97677.75;5096873;28;20442;-30
2022/01/16 09:14:25;;;;;;;18.23;10.00;;;;;;;7.25;51.12;97682.25;5096466;28;20442;-31
2022/01/16 09:16:53;;;;;;;25.23;12.23;;;;;;;7.23;49.92;97686.91;5096391;28;20486;-30
2022/01/16 09:19:20;;;;;;;11.80;5.70;;;;;;;7.34;51.14;97665.25;5096707;28;20455;-30
2022/01/16 09:21:47;;;;;;;14.17;5.80;;;;;;;7.42;49.98;97664.28;5096409;28;20443;-32
2022/01/16 09:24:14;;;;;;;79.93;28.00;;;;;;;7.43;49.65;97657.16;5096268;28;20457;-32
2022/01/16 09:26:43;;;;;;;16.20;6.87;;;;;;;7.54;49.38;97659.25;5096301;28;20442;-32
2022/01/16 09:29:10;;;;;;;31.90;15.90;;;;;;;7.54;49.38;97661.91;5096181;28;20442;-31
2022/01/16 09:31:37;;;;;;;31.60;13.43;;;;;;;7.43;49.11;97651.88;5096212;28;20609;-30
2022/01/16 09:34:05;;;;;;;6.63;5.17;;;;;;;7.47;49.32;97647.84;5096055;28;20443;-31
2022/01/16 09:36:32;;;;;;;16.00;8.10;;;;;;;7.51;48.65;97634.03;5096311;28;20820;-30
2022/01/16 09:38:59;;;;;;;26.33;10.47;;;;;;;7.57;48.95;97641.19;5094915;28;20446;-31
2022/01/16 09:41:26;;;;;;;15.33;8.30;;;;;;;7.56;48.91;97647.47;5095943;28;20446;-30
2022/01/16 09:43:56;;;;;;;12.60;6.00;;;;;;;7.61;49.15;97654.00;5095942;28;20443;-31
2022/01/16 09:46:24;;;;;;;13.03;8.03;;;;;;;7.59;48.46;97638.31;5095860;28;20935;-32
2022/01/16 09:48:51;;;;;;;17.80;9.20;;;;;;;7.59;49.50;97638.31;5095835;28;21009;-31
2022/01/16 09:51:18;;;;;;;11.60;7.63;;;;;;;7.56;48.88;97646.66;5095691;28;20526;-31
2022/01/16 09:53:45;;;;;;;16.43;9.00;;;;;;;7.51;49.51;97635.88;5095768;28;20439;-31
2022/01/16 09:56:13;;;;;;;7.80;6.07;;;;;;;7.51;47.67;97625.31;5095640;28;20574;-30
2022/01/16 09:58:41;;;;;;;32.50;15.03;;;;;;;7.47;49.05;97626.72;5095440;28;20481;-31
2022/01/16 10:01:09;;;;;;;8.53;4.33;;;;;;;7.20;48.00;97620.44;5096012;28;20470;-31
2022/01/16 10:03:39;;;;;;;20.60;8.93;;;;;;;7.25;49.31;97624.16;5095578;28;20439;-32
2022/01/16 10:06:13;;;;;;;35.43;14.70;;;;;;;7.29;48.23;97614.84;5095512;28;20446;-32
2022/01/16 10:08:41;;;;;;;23.43;13.67;;;;;;;7.42;49.30;97621.19;5095725;28;20431;-31
2022/01/16 10:11:35;;;;;;;51.20;34.93;;;;;;;7.49;48.22;97619.41;5095386;28;20439;-32
2022/01/16 10:14:11;;;;;;;28.93;12.77;;;;;;;7.47;49.18;97610.84;5095369;28;20925;-32
2022/01/16 10:16:42;;;;;;;15.13;7.93;;;;;;;7.30;47.64;97619.09;5094998;28;20482;-31
2022/01/16 10:19:20;;;;;;;8.70;4.70;;;;;;;7.37;48.58;97609.38;5095294;28;20431;-33
2022/01/16 10:21:48;;;;;;;12.10;7.00;;;;;;;7.52;49.34;97608.44;5095257;28;20945;-33
2022/01/16 10:24:28;;;;;;;24.90;10.50;;;;;;;7.68;49.65;97608.09;5095366;28;20473;-33
2022/01/16 10:27:15;;;;;;;23.67;9.13;;;;;;;7.79;47.61;97596.94;5095053;28;20514;-32
2022/01/16 10:29:45;;;;;;;15.77;9.80;;;;;;;7.84;48.95;97595.53;5094954;28;20447;-31
2022/01/16 10:32:16;;;;;;;11.97;8.10;;;;;;;7.92;48.86;97590.06;5095022;28;20470;-32
2022/01/16 10:34:44;;;;;;;8.53;6.10;;;;;;;8.06;47.44;97589.06;5095026;28;20522;-32
2022/01/16 10:37:36;;;;;;;4.47;3.60;;;;;;;8.13;47.86;97579.34;5094908;28;21012;-31
2022/01/16 10:40:06;;;;;;;6.97;4.73;;;;;;;8.16;47.45;97581.56;5075234;28;20534;-32
2022/01/16 10:42:35;;;;;;;10.63;4.50;;;;;;;8.20;46.74;97584.63;5095107;28;20938;-32
2022/01/16 10:45:07;;;;;;;7.30;5.07;;;;;;;8.25;46.30;97581.38;5095100;28;20451;-34
2022/01/16 10:47:38;;;;;;;30.70;12.43;;;;;;;8.27;46.20;97571.41;5094708;28;20791;-32
2022/01/16 10:50:12;;;;;;;14.67;9.37;;;;;;;8.25;46.16;97571.59;5094837;28;20423;-33
2022/01/16 10:52:58;;;;;;;7.90;4.23;;;;;;;8.24;46.68;97569.16;5094633;28;20961;-32
2022/01/16 10:55:38;;;;;;;10.90;4.07;;;;;;;8.27;46.12;97574.06;5094804;28;20490;-32
2022/01/16 10:58:08;;;;;;;11.27;7.47;;;;;;;8.26;46.20;97562.66;5094335;28;20517;-32
2022/01/16 11:00:36;;;;;;;12.77;6.17;;;;;;;8.36;46.80;97562.25;5094515;28;20427;-32
2022/01/16 11:03:07;;;;;;;5.40;3.83;;;;;;;8.43;44.38;97563.06;5094401;28;20445;-32
2022/01/16 11:05:36;;;;;;;6.17;3.33;;;;;;;8.37;44.18;97551.47;5094403;28;20446;-32
2022/01/16 11:08:06;;;;;;;12.90;5.40;;;;;;;8.43;44.48;97555.13;5094377;28;20443;-32
2022/01/16 11:10:36;;;;;;;11.80;5.23;;;;;;;8.49;44.04;97556.97;5094325;28;20484;-32
2022/01/16 11:13:05;;;;;;;38.97;19.50;;;;;;;8.59;43.39;97556.59;5094301;28;21044;-32
2022/01/16 11:15:34;;;;;;;4.77;3.10;;;;;;;8.53;39.81;97542.31;5094244;28;20478;-33
2022/01/16 11:18:06;;;;;;;5.47;3.70;;;;;;;8.29;40.68;97548.22;5094140;28;20443;-31
2022/01/16 11:20:36;;;;;;;5.93;4.00;;;;;;;8.21;41.16;97536.78;5094257;28;20427;-32
2022/01/16 11:23:15;;;;;;;23.70;15.87;;;;;;;8.11;42.82;97515.25;5093845;28;20454;-32
2022/01/16 11:25:44;;;;;;;9.37;4.60;;;;;;;8.32;40.64;97545.16;5093961;28;20431;-33
2022/01/16 11:28:15;;;;;;;12.37;6.73;;;;;;;8.29;41.82;97527.03;5093941;28;20918;-33
2022/01/16 11:30:46;;;;;;;8.53;2.90;;;;;;;8.36;42.02;97536.59;5093926;28;20438;-33
2022/01/16 11:33:15;;;;;;;10.00;5.03;;;;;;;8.43;43.15;97536.63;5093871;28;20481;-32
2022/01/16 11:35:46;;;;;;;9.83;4.20;;;;;;;8.50;43.50;97531.34;5093982;28;20902;-31
2022/01/16 11:38:14;;;;;;;17.93;6.60;;;;;;;8.49;41.31;97525.22;5094178;28;20762;-32
2022/01/16 11:40:48;;;;;;;19.17;5.10;;;;;;;8.46;41.36;97525.63;5094064;28;20447;-32
2022/01/16 11:43:32;;;;;;;27.90;6.37;;;;;;;8.47;40.17;97519.31;5093734;28;20434;-32
2022/01/16 11:46:11;;;;;;;27.00;8.47;;;;;;;8.42;39.99;97513.03;5092947;28;20451;-32
2022/01/16 11:48:44;;;;;;;60.27;16.53;;;;;;;8.42;40.04;97508.53;5094081;28;20424;-32
2022/01/16 11:52:02;;;;;;;43.53;15.30;;;;;;;8.47;41.44;97510.56;5093753;28;20435;-32
2022/01/16 11:54:35;;;;;;;24.90;10.20;;;;;;;8.48;42.30;97496.34;5093533;28;20945;-30
2022/01/16 11:57:21;;;;;;;13.90;7.30;;;;;;;8.48;41.94;97502.44;5093290;28;20498;-31
2022/01/16 11:59:55;;;;;;;9.73;6.57;;;;;;;8.51;42.96;97494.06;5093942;28;20420;-32
2022/01/16 12:02:25;;;;;;;23.77;9.53;;;;;;;8.55;40.30;97489.19;5093268;28;20526;-31
2022/01/16 12:04:56;;;;;;;24.60;10.90;;;;;;;8.57;41.20;97497.75;5093593;28;20442;-30
2022/01/16 12:07:48;;;;;;;12.90;6.23;;;;;;;8.64;42.00;97498.53;5093528;28;20429;-31
2022/01/16 12:10:39;;;;;;;24.03;7.40;;;;;;;8.55;40.80;97500.59;5093719;28;20424;-30
2022/01/16 12:13:12;;;;;;;21.60;5.97;;;;;;;8.55;40.91;97497.94;5093718;28;20500;-31
2022/01/16 12:15:39;;;;;;;16.23;8.97;;;;;;;8.47;42.23;97490.19;5093689;28;20427;-31